createdAt,value
2018-11-20T00:00:43.910Z,22.20
2018-11-20T00:01:33.924Z,22.20
2018-11-20T00:02:24.494Z,22.20
2018-11-20T00:03:14.861Z,22.20
2018-11-20T00:04:04.882Z,22.20
2018-11-20T00:04:54.908Z,22.20
2018-11-20T00:05:45.376Z,22.20
2018-11-20T00:06:36.052Z,22.20
2018-11-20T00:07:26.399Z,22.20
2018-11-20T00:08:16.908Z,22.20
2018-11-20T00:09:07.459Z,22.20
2018-11-20T00:09:57.969Z,22.20
2018-11-20T00:10:48.743Z,22.20
2018-11-20T00:11:38.822Z,22.20
2018-11-20T00:12:29.413Z,22.20
2018-11-20T00:13:19.787Z,22.20
2018-11-20T00:14:10.443Z,22.20
2018-11-20T00:15:00.989Z,22.20
2018-11-20T00:15:50.966Z,22.20
2018-11-20T00:16:41.524Z,22.20
2018-11-20T00:17:31.659Z,22.20
2018-11-20T00:18:21.907Z,22.20
2018-11-20T00:19:12.573Z,22.20
2018-11-20T00:20:03.092Z,22.20
2018-11-20T00:20:53.128Z,22.20
2018-11-20T00:21:43.301Z,22.20
2018-11-20T00:22:34.028Z,22.20
2018-11-20T00:23:24.454Z,22.20
2018-11-20T00:24:15.020Z,22.20
2018-11-20T00:25:05.725Z,22.20
2018-11-20T00:25:56.233Z,22.20
2018-11-20T00:26:46.240Z,22.20
2018-11-20T00:27:36.324Z,22.20
2018-11-20T00:28:26.665Z,22.20
2018-11-20T00:29:17.190Z,22.20
2018-11-20T00:30:07.284Z,22.20
2018-11-20T00:30:57.368Z,22.20
2018-11-20T00:31:47.454Z,22.20
2018-11-20T00:32:38.063Z,22.20
2018-11-20T00:33:28.565Z,22.20
2018-11-20T00:34:18.613Z,22.20
2018-11-20T00:35:09.183Z,22.20
2018-11-20T00:35:59.758Z,22.20
2018-11-20T00:36:50.363Z,22.20
2018-11-20T00:37:41.034Z,22.20
2018-11-20T00:38:31.504Z,22.20
2018-11-20T00:39:21.517Z,22.20
2018-11-20T00:40:11.828Z,22.20
2018-11-20T00:41:02.364Z,22.20
2018-11-20T00:41:52.356Z,22.20
2018-11-20T00:42:42.767Z,22.20
2018-11-20T00:43:32.676Z,22.20
2018-11-20T00:44:23.824Z,22.20
2018-11-20T00:45:13.890Z,22.20
2018-11-20T00:46:03.929Z,22.20
2018-11-20T00:46:53.944Z,22.20
2018-11-20T00:47:44.174Z,22.20
2018-11-20T00:48:34.322Z,22.20
2018-11-20T00:49:24.747Z,22.20
2018-11-20T00:50:15.222Z,22.20
2018-11-20T00:51:05.281Z,22.20
2018-11-20T00:51:55.819Z,22.20
2018-11-20T00:52:45.909Z,22.20
2018-11-20T00:53:36.342Z,22.20
2018-11-20T00:54:26.437Z,22.20
2018-11-20T00:55:17.067Z,22.20
2018-11-20T00:56:07.173Z,22.20
2018-11-20T00:56:57.666Z,22.20
2018-11-20T00:57:47.810Z,22.20
2018-11-20T00:58:37.793Z,22.20
2018-11-20T00:59:28.231Z,22.20
2018-11-20T01:00:18.412Z,22.20
2018-11-20T01:01:08.430Z,22.30
2018-11-20T01:01:58.421Z,22.20
2018-11-20T01:02:48.512Z,22.20
2018-11-20T01:03:39.058Z,22.20
2018-11-20T01:04:29.472Z,22.20
2018-11-20T01:05:19.942Z,22.20
2018-11-20T01:06:10.473Z,22.20
2018-11-20T01:07:01.159Z,22.20
2018-11-20T01:07:51.770Z,22.20
2018-11-20T01:08:42.203Z,22.20
2018-11-20T01:09:32.702Z,22.20
2018-11-20T01:10:22.891Z,22.20
2018-11-20T01:11:13.411Z,22.20
2018-11-20T01:12:03.548Z,22.20
2018-11-20T01:12:53.614Z,22.20
2018-11-20T01:13:43.674Z,22.20
2018-11-20T01:14:33.853Z,22.20
2018-11-20T01:15:24.336Z,22.20
2018-11-20T01:16:14.826Z,22.20
2018-11-20T01:17:05.266Z,22.20
2018-11-20T01:17:55.750Z,22.20
2018-11-20T01:18:46.544Z,22.20
2018-11-20T01:19:36.727Z,22.20
2018-11-20T01:20:27.199Z,22.20
2018-11-20T01:21:17.201Z,22.20
2018-11-20T01:22:07.514Z,22.30
2018-11-20T01:22:57.766Z,22.20
2018-11-20T01:23:47.883Z,22.30
2018-11-20T01:24:38.362Z,22.20
2018-11-20T01:25:28.997Z,22.20
2018-11-20T01:26:19.122Z,22.30
2018-11-20T01:27:09.217Z,22.20
2018-11-20T01:27:59.614Z,22.20
2018-11-20T01:28:49.873Z,22.20
2018-11-20T01:29:40.023Z,22.20
2018-11-20T01:30:30.083Z,22.20
2018-11-20T01:31:20.447Z,22.20
2018-11-20T01:32:10.855Z,22.30
2018-11-20T01:33:01.330Z,22.20
2018-11-20T01:33:52.006Z,22.20
2018-11-20T01:34:42.083Z,22.20
2018-11-20T01:35:32.106Z,22.20
2018-11-20T01:36:22.173Z,22.20
2018-11-20T01:37:12.260Z,22.20
2018-11-20T01:38:02.315Z,22.20
2018-11-20T01:38:52.778Z,22.30
2018-11-20T01:39:43.468Z,22.20
2018-11-20T01:40:33.412Z,22.20
2018-11-20T01:41:24.143Z,22.20
2018-11-20T01:42:14.151Z,22.30
2018-11-20T01:43:04.350Z,22.20
2018-11-20T01:43:54.428Z,22.20
2018-11-20T01:44:44.495Z,22.20
2018-11-20T01:45:34.650Z,22.20
2018-11-20T01:46:25.263Z,22.20
2018-11-20T01:47:15.670Z,22.30
2018-11-20T01:48:06.223Z,22.20
2018-11-20T01:48:57.015Z,22.30
2018-11-20T01:49:47.297Z,22.20
2018-11-20T01:50:37.714Z,22.20
2018-11-20T01:51:28.276Z,22.20
2018-11-20T01:52:18.963Z,22.20
2018-11-20T01:53:09.581Z,22.20
2018-11-20T01:53:59.954Z,22.20
2018-11-20T01:54:50.503Z,22.20
2018-11-20T01:55:41.245Z,22.20
2018-11-20T01:56:31.459Z,22.30
2018-11-20T01:57:21.780Z,22.20
2018-11-20T01:58:12.256Z,22.20
2018-11-20T01:59:02.780Z,22.30
2018-11-20T01:59:53.416Z,22.20
2018-11-20T02:00:43.951Z,22.30
2018-11-20T02:01:34.014Z,22.30
2018-11-20T02:02:24.496Z,22.30
2018-11-20T02:03:14.623Z,22.20
2018-11-20T02:04:04.830Z,22.30
2018-11-20T02:04:55.286Z,22.30
2018-11-20T02:05:45.321Z,22.30
2018-11-20T02:06:35.659Z,22.30
2018-11-20T02:07:26.208Z,22.30
2018-11-20T02:08:16.850Z,22.30
2018-11-20T02:09:07.402Z,22.30
2018-11-20T02:09:57.851Z,22.30
2018-11-20T02:10:48.447Z,22.30
2018-11-20T02:11:39.019Z,22.30
2018-11-20T02:12:29.396Z,22.30
2018-11-20T02:13:19.881Z,22.30
2018-11-20T02:14:10.552Z,22.30
2018-11-20T02:15:00.709Z,22.30
2018-11-20T02:15:50.831Z,22.30
2018-11-20T02:16:40.801Z,22.30
2018-11-20T02:17:31.466Z,22.30
2018-11-20T02:18:22.205Z,22.30
2018-11-20T02:19:12.288Z,22.30
2018-11-20T02:20:02.782Z,22.20
2018-11-20T02:20:53.268Z,22.30
2018-11-20T02:21:43.891Z,22.30
2018-11-20T02:22:34.352Z,22.30
2018-11-20T02:23:24.807Z,22.30
2018-11-20T02:24:14.921Z,22.30
2018-11-20T02:25:05.129Z,22.30
2018-11-20T02:25:55.686Z,22.30
2018-11-20T02:26:46.247Z,22.30
2018-11-20T02:27:36.801Z,22.30
2018-11-20T02:28:27.265Z,22.30
2018-11-20T02:29:17.998Z,22.20
2018-11-20T02:30:08.540Z,22.30
2018-11-20T02:30:59.078Z,22.30
2018-11-20T02:31:49.117Z,22.30
2018-11-20T02:32:39.803Z,22.30
2018-11-20T02:33:30.295Z,22.30
2018-11-20T02:34:20.907Z,22.30
2018-11-20T02:35:10.988Z,22.30
2018-11-20T02:36:01.046Z,22.30
2018-11-20T02:36:51.238Z,22.30
2018-11-20T02:37:41.361Z,22.30
2018-11-20T02:38:31.380Z,22.30
2018-11-20T02:39:21.447Z,22.30
2018-11-20T02:40:11.819Z,22.30
2018-11-20T02:41:02.597Z,22.20
2018-11-20T02:41:53.094Z,22.30
2018-11-20T02:42:43.056Z,22.30
2018-11-20T02:43:33.633Z,22.30
2018-11-20T02:44:24.218Z,22.30
2018-11-20T02:45:14.301Z,22.30
2018-11-20T02:46:04.365Z,22.30
2018-11-20T02:46:54.847Z,22.30
2018-11-20T02:47:44.906Z,22.30
2018-11-20T02:48:35.086Z,22.30
2018-11-20T02:49:25.135Z,22.20
2018-11-20T02:50:15.687Z,22.30
2018-11-20T02:51:06.203Z,22.30
2018-11-20T02:51:56.360Z,22.30
2018-11-20T02:52:46.878Z,22.20
2018-11-20T02:53:36.925Z,22.20
2018-11-20T02:54:26.996Z,22.30
2018-11-20T02:55:17.046Z,22.30
2018-11-20T02:56:07.237Z,22.30
2018-11-20T02:56:57.431Z,22.30
2018-11-20T02:57:47.818Z,22.30
2018-11-20T02:58:37.887Z,22.30
2018-11-20T02:59:28.047Z,22.30
2018-11-20T03:00:18.758Z,22.30
2018-11-20T03:01:09.264Z,22.30
2018-11-20T03:01:59.782Z,22.30
2018-11-20T03:02:50.281Z,22.30
2018-11-20T03:03:40.912Z,22.30
2018-11-20T03:04:31.138Z,22.30
2018-11-20T03:05:21.184Z,22.30
2018-11-20T03:06:11.862Z,22.30
2018-11-20T03:07:02.472Z,22.30
2018-11-20T03:07:52.871Z,22.30
2018-11-20T03:08:43.383Z,22.30
2018-11-20T03:09:33.943Z,22.30
2018-11-20T03:10:23.924Z,22.30
2018-11-20T03:11:14.199Z,22.30
2018-11-20T03:12:04.535Z,22.30
2018-11-20T03:12:54.656Z,22.30
2018-11-20T03:13:45.498Z,22.30
2018-11-20T03:14:36.149Z,22.30
2018-11-20T03:15:26.647Z,22.30
2018-11-20T03:16:17.113Z,22.30
2018-11-20T03:17:07.195Z,22.30
2018-11-20T03:17:57.661Z,22.30
2018-11-20T03:18:48.245Z,22.30
2018-11-20T03:19:38.773Z,22.30
2018-11-20T03:20:29.120Z,22.30
2018-11-20T03:21:19.658Z,22.30
2018-11-20T03:22:09.767Z,22.30
2018-11-20T03:22:59.861Z,22.30
2018-11-20T03:23:49.875Z,22.20
2018-11-20T03:24:39.953Z,22.30
2018-11-20T03:25:30.033Z,22.30
2018-11-20T03:26:20.624Z,22.30
2018-11-20T03:27:11.440Z,22.30
2018-11-20T03:28:01.594Z,22.30
2018-11-20T03:28:51.703Z,22.30
2018-11-20T03:29:42.065Z,22.30
2018-11-20T03:30:32.176Z,22.30
2018-11-20T03:31:22.468Z,22.30
2018-11-20T03:32:12.460Z,22.30
2018-11-20T03:33:02.843Z,22.30
2018-11-20T03:33:53.016Z,22.30
2018-11-20T03:34:43.247Z,22.30
2018-11-20T03:35:33.251Z,22.30
2018-11-20T03:36:23.335Z,22.30
2018-11-20T03:37:13.573Z,22.30
2018-11-20T03:38:04.186Z,22.30
2018-11-20T03:38:54.807Z,22.30
2018-11-20T03:39:44.818Z,22.30
2018-11-20T03:40:34.900Z,22.30
2018-11-20T03:41:25.150Z,22.30
2018-11-20T03:42:15.657Z,22.30
2018-11-20T03:43:06.053Z,22.30
2018-11-20T03:43:56.507Z,22.30
2018-11-20T03:44:47.096Z,22.30
2018-11-20T03:45:37.784Z,22.30
2018-11-20T03:46:27.916Z,22.30
2018-11-20T03:47:18.199Z,22.30
2018-11-20T03:48:08.588Z,22.30
2018-11-20T03:48:59.325Z,22.30
2018-11-20T03:49:49.905Z,22.30
2018-11-20T03:50:40.205Z,22.30
2018-11-20T03:51:30.213Z,22.30
2018-11-20T03:52:20.382Z,22.30
2018-11-20T03:53:10.488Z,22.30
2018-11-20T03:54:00.903Z,22.30
2018-11-20T03:54:51.361Z,22.30
2018-11-20T03:55:41.777Z,22.30
2018-11-20T03:56:32.576Z,22.30
2018-11-20T03:57:23.032Z,22.30
2018-11-20T03:58:13.526Z,22.30
2018-11-20T03:59:03.976Z,22.30
2018-11-20T03:59:54.674Z,22.30
2018-11-20T04:00:44.778Z,22.30
2018-11-20T04:01:35.229Z,22.30
2018-11-20T04:02:25.718Z,22.30
2018-11-20T04:03:16.248Z,22.30
2018-11-20T04:04:06.983Z,22.30
2018-11-20T04:04:57.483Z,22.30
2018-11-20T04:05:47.994Z,22.30
2018-11-20T04:06:38.068Z,22.30
2018-11-20T04:07:28.306Z,22.40
2018-11-20T04:08:18.863Z,22.30
2018-11-20T04:09:09.305Z,22.30
2018-11-20T04:09:59.828Z,22.30
2018-11-20T04:10:50.418Z,22.30
2018-11-20T04:11:40.843Z,22.30
2018-11-20T04:12:31.235Z,22.30
2018-11-20T04:13:21.790Z,22.30
2018-11-20T04:14:12.260Z,22.30
2018-11-20T04:15:02.354Z,22.30
2018-11-20T04:15:52.423Z,22.30
2018-11-20T04:16:42.678Z,22.40
2018-11-20T04:17:33.184Z,22.30
2018-11-20T04:18:23.377Z,22.30
2018-11-20T04:19:13.529Z,22.40
2018-11-20T04:20:03.912Z,22.30
2018-11-20T04:20:53.890Z,22.40
2018-11-20T04:21:43.999Z,22.40
2018-11-20T04:22:34.353Z,22.30
2018-11-20T04:23:24.854Z,22.40
2018-11-20T04:24:15.546Z,22.30
2018-11-20T04:25:06.164Z,22.40
2018-11-20T04:25:56.705Z,22.30
2018-11-20T04:26:47.396Z,22.40
2018-11-20T04:27:37.532Z,22.40
2018-11-20T04:28:27.863Z,22.40
2018-11-20T04:29:18.258Z,22.30
2018-11-20T04:30:09.037Z,22.40
2018-11-20T04:30:59.067Z,22.40
2018-11-20T04:31:49.112Z,22.40
2018-11-20T04:32:39.426Z,22.40
2018-11-20T04:33:30.007Z,22.40
2018-11-20T04:34:20.091Z,22.40
2018-11-20T04:35:10.152Z,22.40
2018-11-20T04:36:00.396Z,22.40
2018-11-20T04:36:50.456Z,22.40
2018-11-20T04:37:41.225Z,22.40
2018-11-20T04:38:31.730Z,22.40
2018-11-20T04:39:21.946Z,22.40
2018-11-20T04:40:12.441Z,22.40
2018-11-20T04:41:03.081Z,22.40
2018-11-20T04:41:53.651Z,22.40
2018-11-20T04:42:44.089Z,22.40
2018-11-20T04:43:34.133Z,22.40
2018-11-20T04:44:24.022Z,22.40
2018-11-20T04:45:14.925Z,22.40
2018-11-20T04:46:05.316Z,22.40
2018-11-20T04:46:55.767Z,22.40
2018-11-20T04:47:46.236Z,22.40
2018-11-20T04:48:37.016Z,22.40
2018-11-20T04:49:27.202Z,22.40
2018-11-20T04:50:17.678Z,22.40
2018-11-20T04:51:08.113Z,22.40
2018-11-20T04:51:58.295Z,22.40
2018-11-20T04:52:48.905Z,22.40
2018-11-20T04:53:39.085Z,22.40
2018-11-20T04:54:29.113Z,22.40
2018-11-20T04:55:19.224Z,22.40
2018-11-20T04:56:09.882Z,22.40
2018-11-20T04:56:59.920Z,22.40
2018-11-20T04:57:50.435Z,22.40
2018-11-20T04:58:40.893Z,22.40
2018-11-20T04:59:31.485Z,22.40
2018-11-20T05:00:21.807Z,22.40
2018-11-20T05:01:11.909Z,22.40
2018-11-20T05:02:02.137Z,22.40
2018-11-20T05:02:52.616Z,22.40
2018-11-20T05:03:43.446Z,22.40
2018-11-20T05:04:33.853Z,22.40
2018-11-20T05:05:23.829Z,22.40
2018-11-20T05:06:13.865Z,22.40
2018-11-20T05:07:04.311Z,22.40
2018-11-20T05:07:54.362Z,22.40
2018-11-20T05:08:44.765Z,22.40
2018-11-20T05:09:34.784Z,22.40
2018-11-20T05:10:25.110Z,22.40
2018-11-20T05:11:15.285Z,22.40
2018-11-20T05:12:05.653Z,22.40
2018-11-20T05:12:56.105Z,22.40
2018-11-20T05:13:46.396Z,22.40
2018-11-20T05:14:36.388Z,22.40
2018-11-20T05:15:26.913Z,22.40
2018-11-20T05:16:17.424Z,22.40
2018-11-20T05:17:07.871Z,22.40
2018-11-20T05:17:58.574Z,22.40
2018-11-20T05:18:49.233Z,22.40
2018-11-20T05:19:39.785Z,22.40
2018-11-20T05:20:30.269Z,22.40
2018-11-20T05:21:20.532Z,22.40
2018-11-20T05:22:11.048Z,22.40
2018-11-20T05:23:01.844Z,22.40
2018-11-20T05:23:51.839Z,22.40
2018-11-20T05:24:41.892Z,22.40
2018-11-20T05:25:31.952Z,22.40
2018-11-20T05:26:22.659Z,22.40
2018-11-20T05:27:12.834Z,22.40
2018-11-20T05:28:03.451Z,22.40
2018-11-20T05:28:53.890Z,22.40
2018-11-20T05:29:44.479Z,22.40
2018-11-20T05:30:34.825Z,22.40
2018-11-20T05:31:25.295Z,22.30
2018-11-20T05:32:15.970Z,22.30
2018-11-20T05:33:06.063Z,22.30
2018-11-20T05:33:56.609Z,22.30
2018-11-20T05:34:46.760Z,22.20
2018-11-20T05:35:37.184Z,22.20
2018-11-20T05:36:27.969Z,22.30
2018-11-20T05:37:18.215Z,22.30
2018-11-20T05:38:08.396Z,22.30
2018-11-20T05:38:58.474Z,22.40
2018-11-20T05:39:49.022Z,22.40
2018-11-20T05:40:39.415Z,22.40
2018-11-20T05:41:29.981Z,22.40
2018-11-20T05:42:20.705Z,22.40
2018-11-20T05:43:11.252Z,22.40
2018-11-20T05:44:01.762Z,22.40
2018-11-20T05:44:52.386Z,22.40
2018-11-20T05:45:43.026Z,22.40
2018-11-20T05:46:33.082Z,22.40
2018-11-20T05:47:23.219Z,22.40
2018-11-20T05:48:14.075Z,22.40
2018-11-20T05:49:04.648Z,22.50
2018-11-20T05:49:54.878Z,22.40
2018-11-20T05:50:45.421Z,22.40
2018-11-20T05:51:35.497Z,22.40
2018-11-20T05:52:26.043Z,22.40
2018-11-20T05:53:16.565Z,22.40
2018-11-20T05:54:07.044Z,22.40
2018-11-20T05:54:57.534Z,22.40
2018-11-20T05:55:47.749Z,22.50
2018-11-20T05:56:38.358Z,22.50
2018-11-20T05:57:28.364Z,22.50
2018-11-20T05:58:18.934Z,22.50
2018-11-20T05:59:09.497Z,22.40
2018-11-20T06:00:00.171Z,21.50
2018-11-20T06:00:50.309Z,20.40
2018-11-20T06:01:43.382Z,19.40
2018-11-20T06:02:31.301Z,18.80
2018-11-20T06:03:21.985Z,18.80
2018-11-20T06:04:12.322Z,19.10
2018-11-20T06:05:02.435Z,19.30
2018-11-20T06:05:52.885Z,19.60
2018-11-20T06:06:43.067Z,19.90
2018-11-20T06:07:33.401Z,20.20
2018-11-20T06:09:33.300Z,20.60
2018-11-20T06:10:23.918Z,20.90
2018-11-20T06:11:14.577Z,21.00
2018-11-20T06:12:05.090Z,21.20
2018-11-20T06:12:55.179Z,21.30
2018-11-20T06:13:45.894Z,21.40
2018-11-20T06:14:36.044Z,21.60
2018-11-20T06:15:26.093Z,21.70
2018-11-20T06:16:16.131Z,21.70
2018-11-20T06:17:06.764Z,21.80
2018-11-20T06:17:57.656Z,21.90
2018-11-20T06:18:47.764Z,21.90
2018-11-20T06:19:37.844Z,21.90
2018-11-20T06:20:28.126Z,21.90
2018-11-20T06:21:18.304Z,22.00
2018-11-20T06:22:08.757Z,22.00
2018-11-20T06:22:59.207Z,22.00
2018-11-20T06:23:49.735Z,22.00
2018-11-20T06:24:40.006Z,22.00
2018-11-20T06:25:30.093Z,22.00
2018-11-20T06:26:20.347Z,22.00
2018-11-20T06:27:10.783Z,22.00
2018-11-20T06:28:00.891Z,22.00
2018-11-20T06:28:51.383Z,22.00
2018-11-20T06:29:41.441Z,22.00
2018-11-20T06:30:31.712Z,22.10
2018-11-20T06:31:21.736Z,22.00
2018-11-20T06:32:12.236Z,22.00
2018-11-20T06:33:02.827Z,22.00
2018-11-20T06:33:53.365Z,22.10
2018-11-20T06:34:43.988Z,22.00
2018-11-20T06:35:34.040Z,22.00
2018-11-20T06:36:24.411Z,22.00
2018-11-20T06:37:14.592Z,22.00
2018-11-20T06:38:05.077Z,22.10
2018-11-20T06:38:55.144Z,22.00
2018-11-20T06:39:45.177Z,22.00
2018-11-20T06:40:35.343Z,22.00
2018-11-20T06:41:25.797Z,22.10
2018-11-20T06:42:16.085Z,22.00
2018-11-20T06:43:06.437Z,22.00
2018-11-20T06:43:56.628Z,22.00
2018-11-20T06:44:46.995Z,22.00
2018-11-20T06:45:37.140Z,22.00
2018-11-20T06:46:27.073Z,22.00
2018-11-20T06:47:17.156Z,22.00
2018-11-20T06:48:07.802Z,22.00
2018-11-20T06:48:57.834Z,22.00
2018-11-20T06:49:47.952Z,22.00
2018-11-20T06:50:38.222Z,22.10
2018-11-20T06:51:28.418Z,22.00
2018-11-20T06:52:18.986Z,22.00
2018-11-20T06:53:09.648Z,22.10
2018-11-20T06:53:59.637Z,22.00
2018-11-20T06:54:50.178Z,22.00
2018-11-20T06:55:40.564Z,22.00
2018-11-20T06:56:30.655Z,22.00
2018-11-20T06:57:20.825Z,22.00
2018-11-20T06:58:10.768Z,22.00
2018-11-20T06:59:01.147Z,22.00
2018-11-20T06:59:51.798Z,22.00
2018-11-20T07:00:41.848Z,22.00
2018-11-20T07:01:31.931Z,22.00
2018-11-20T07:02:21.984Z,22.10
2018-11-20T07:03:12.504Z,22.00
2018-11-20T07:04:02.644Z,22.00
2018-11-20T07:04:52.699Z,22.00
2018-11-20T07:05:43.254Z,22.00
2018-11-20T07:06:33.349Z,22.10
2018-11-20T07:07:23.694Z,22.10
2018-11-20T07:08:14.332Z,22.10
2018-11-20T07:09:04.233Z,22.10
2018-11-20T07:09:54.527Z,22.10
2018-11-20T07:10:44.933Z,22.00
2018-11-20T07:11:35.505Z,22.00
2018-11-20T07:12:25.550Z,22.00
2018-11-20T07:13:15.856Z,22.00
2018-11-20T07:14:06.437Z,22.00
2018-11-20T07:14:57.076Z,22.00
2018-11-20T07:15:48.022Z,22.00
2018-11-20T07:16:38.014Z,22.00
2018-11-20T07:17:28.069Z,22.00
2018-11-20T07:18:18.501Z,22.00
2018-11-20T07:19:09.037Z,22.00
2018-11-20T07:19:59.611Z,22.00
2018-11-20T07:20:49.720Z,22.00
2018-11-20T07:21:40.115Z,22.00
2018-11-20T07:22:30.980Z,22.10
2018-11-20T07:23:21.006Z,22.10
2018-11-20T07:24:11.518Z,22.10
2018-11-20T07:25:01.694Z,22.10
2018-11-20T07:25:51.971Z,22.10
2018-11-20T07:26:42.068Z,22.10
2018-11-20T07:27:32.164Z,22.10
2018-11-20T07:28:22.212Z,22.10
2018-11-20T07:29:12.403Z,22.10
2018-11-20T07:30:02.802Z,22.10
2018-11-20T07:30:53.395Z,22.10
2018-11-20T07:31:43.460Z,22.10
2018-11-20T07:32:34.008Z,22.10
2018-11-20T07:33:24.468Z,22.10
2018-11-20T07:34:15.130Z,22.10
2018-11-20T07:35:05.683Z,22.10
2018-11-20T07:35:56.223Z,22.10
2018-11-20T07:36:46.815Z,22.10
2018-11-20T07:37:37.078Z,22.10
2018-11-20T07:38:27.603Z,22.10
2018-11-20T07:39:17.512Z,22.10
2018-11-20T07:40:07.619Z,22.10
2018-11-20T07:40:58.064Z,22.10
2018-11-20T07:41:48.756Z,22.10
2018-11-20T07:42:38.783Z,22.10
2018-11-20T07:43:28.917Z,22.10
2018-11-20T07:44:19.041Z,22.10
2018-11-20T07:45:09.808Z,22.10
2018-11-20T07:46:00.349Z,22.10
2018-11-20T07:46:50.832Z,22.10
2018-11-20T07:47:41.270Z,22.10
2018-11-20T07:48:31.382Z,22.10
2018-11-20T07:49:21.396Z,22.10
2018-11-20T07:50:11.407Z,22.10
2018-11-20T07:51:01.466Z,22.10
2018-11-20T07:51:51.718Z,22.10
2018-11-20T07:52:41.897Z,22.10
2018-11-20T07:53:32.469Z,22.10
2018-11-20T07:54:22.638Z,22.10
2018-11-20T07:55:13.396Z,22.10
2018-11-20T07:56:03.535Z,22.10
2018-11-20T07:56:53.847Z,22.10
2018-11-20T07:57:43.952Z,22.10
2018-11-20T07:58:33.916Z,22.10
2018-11-20T07:59:24.538Z,22.10
2018-11-20T08:00:15.041Z,22.10
2018-11-20T08:01:05.565Z,22.10
2018-11-20T08:01:56.167Z,22.10
2018-11-20T08:02:46.125Z,22.10
2018-11-20T08:03:36.595Z,22.10
2018-11-20T08:04:27.440Z,22.10
2018-11-20T08:05:17.464Z,22.10
2018-11-20T08:06:07.932Z,22.10
2018-11-20T08:06:58.387Z,22.10
2018-11-20T08:07:48.551Z,22.10
2018-11-20T08:08:39.042Z,22.10
2018-11-20T08:09:29.499Z,22.10
2018-11-20T08:10:19.941Z,22.10
2018-11-20T08:11:10.458Z,22.10
2018-11-20T08:12:01.036Z,22.10
2018-11-20T08:12:51.018Z,22.10
2018-11-20T08:13:41.042Z,22.10
2018-11-20T08:14:31.729Z,22.10
2018-11-20T08:15:22.382Z,22.10
2018-11-20T08:16:12.443Z,22.10
2018-11-20T08:17:02.974Z,22.10
2018-11-20T08:17:53.775Z,22.20
2018-11-20T08:18:44.388Z,22.10
2018-11-20T08:19:34.962Z,22.20
2018-11-20T08:20:25.432Z,22.20
2018-11-20T08:21:15.983Z,22.10
2018-11-20T08:22:06.066Z,22.10
2018-11-20T08:22:56.318Z,22.10
2018-11-20T08:23:46.777Z,22.10
2018-11-20T08:24:37.305Z,22.20
2018-11-20T08:25:27.420Z,22.20
2018-11-20T08:26:18.131Z,22.20
2018-11-20T08:27:08.138Z,22.20
2018-11-20T08:27:58.271Z,22.20
2018-11-20T08:28:48.889Z,22.10
2018-11-20T08:29:38.851Z,22.20
2018-11-20T08:30:28.968Z,22.20
2018-11-20T08:31:19.402Z,22.10
2018-11-20T08:32:09.471Z,22.20
2018-11-20T08:32:59.613Z,22.10
2018-11-20T08:33:50.219Z,22.10
2018-11-20T08:34:40.798Z,22.20
2018-11-20T08:35:30.856Z,22.20
2018-11-20T08:36:21.329Z,22.20
2018-11-20T08:37:11.925Z,22.20
2018-11-20T08:38:02.013Z,22.20
2018-11-20T08:38:52.436Z,22.20
2018-11-20T08:39:42.467Z,22.20
2018-11-20T08:40:32.908Z,22.20
2018-11-20T08:41:23.689Z,22.20
2018-11-20T08:42:14.285Z,22.10
2018-11-20T08:43:04.717Z,22.20
2018-11-20T08:43:55.266Z,22.10
2018-11-20T08:44:45.816Z,22.10
2018-11-20T08:45:36.437Z,22.10
2018-11-20T08:46:26.887Z,22.20
2018-11-20T08:47:17.432Z,22.10
2018-11-20T08:48:08.038Z,22.10
2018-11-20T08:48:58.228Z,22.10
2018-11-20T08:49:48.359Z,22.10
2018-11-20T08:50:38.297Z,22.10
2018-11-20T08:51:28.364Z,22.10
2018-11-20T08:52:18.985Z,22.20
2018-11-20T08:53:09.140Z,22.20
2018-11-20T08:53:59.657Z,22.10
2018-11-20T08:54:49.669Z,22.20
2018-11-20T08:55:39.809Z,22.10
2018-11-20T08:56:30.351Z,22.10
2018-11-20T08:57:20.569Z,22.10
2018-11-20T08:58:10.649Z,22.20
2018-11-20T08:59:01.150Z,22.10
2018-11-20T08:59:51.155Z,22.10
2018-11-20T09:00:41.303Z,22.10
2018-11-20T09:01:31.441Z,22.10
2018-11-20T09:02:22.210Z,22.10
2018-11-20T09:03:12.617Z,22.10
2018-11-20T09:04:03.139Z,22.10
2018-11-20T09:04:53.191Z,22.10
2018-11-20T09:05:43.342Z,22.10
2018-11-20T09:06:34.029Z,22.10
2018-11-20T09:07:24.060Z,22.10
2018-11-20T09:08:14.434Z,22.10
2018-11-20T09:09:04.566Z,22.10
2018-11-20T09:09:54.652Z,22.10
2018-11-20T09:10:44.668Z,22.10
2018-11-20T09:11:35.360Z,22.10
2018-11-20T09:12:25.874Z,22.10
2018-11-20T09:13:16.452Z,22.10
2018-11-20T09:14:06.783Z,22.10
2018-11-20T09:14:56.786Z,22.10
2018-11-20T09:15:47.431Z,22.10
2018-11-20T09:16:37.920Z,22.20
2018-11-20T09:17:28.377Z,22.10
2018-11-20T09:18:18.498Z,22.10
2018-11-20T09:19:08.909Z,22.10
2018-11-20T09:19:59.492Z,22.10
2018-11-20T09:20:50.271Z,22.10
2018-11-20T09:21:40.348Z,22.10
2018-11-20T09:22:30.334Z,22.10
2018-11-20T09:23:20.876Z,22.10
2018-11-20T09:24:11.530Z,22.10
2018-11-20T09:25:01.689Z,22.10
2018-11-20T09:25:52.258Z,22.10
2018-11-20T09:26:42.799Z,22.10
2018-11-20T09:27:33.482Z,22.10
2018-11-20T09:28:23.449Z,22.10
2018-11-20T09:29:13.562Z,22.10
2018-11-20T09:30:03.564Z,22.10
2018-11-20T09:30:53.756Z,22.10
2018-11-20T09:31:43.889Z,22.10
2018-11-20T09:32:34.211Z,22.10
2018-11-20T09:33:24.281Z,22.10
2018-11-20T09:34:14.506Z,22.10
2018-11-20T09:35:05.186Z,22.10
2018-11-20T09:35:55.569Z,22.10
2018-11-20T09:36:45.696Z,22.10
2018-11-20T09:37:36.170Z,22.10
2018-11-20T09:38:26.972Z,22.10
2018-11-20T09:39:17.559Z,22.10
2018-11-20T09:40:07.584Z,22.10
2018-11-20T09:40:57.612Z,22.10
2018-11-20T09:41:48.128Z,22.10
2018-11-20T09:42:38.201Z,22.10
2018-11-20T09:43:28.700Z,22.10
2018-11-20T09:44:19.196Z,22.10
2018-11-20T09:45:09.523Z,22.10
2018-11-20T09:46:00.307Z,22.10
2018-11-20T09:46:50.402Z,22.10
2018-11-20T09:47:41.038Z,22.10
2018-11-20T09:48:31.135Z,22.10
2018-11-20T09:49:21.759Z,22.10
2018-11-20T09:50:11.971Z,22.10
2018-11-20T09:51:02.276Z,22.10
2018-11-20T09:51:52.260Z,22.10
2018-11-20T09:52:42.375Z,22.10
2018-11-20T09:53:33.066Z,22.10
2018-11-20T09:54:23.239Z,22.10
2018-11-20T09:55:13.405Z,22.10
2018-11-20T09:56:03.377Z,22.10
2018-11-20T09:56:53.371Z,22.10
2018-11-20T09:57:44.138Z,22.10
2018-11-20T09:58:34.292Z,22.10
2018-11-20T09:59:24.405Z,22.10
2018-11-20T10:00:14.501Z,22.10
2018-11-20T10:01:04.935Z,22.10
2018-11-20T10:01:55.601Z,22.10
2018-11-20T10:02:45.688Z,22.10
2018-11-20T10:03:36.212Z,22.10
2018-11-20T10:04:26.981Z,22.10
2018-11-20T10:05:17.782Z,22.10
2018-11-20T10:06:07.898Z,22.10
2018-11-20T10:06:58.112Z,22.10
2018-11-20T10:07:48.633Z,22.10
2018-11-20T10:08:38.915Z,22.10
2018-11-20T10:09:29.482Z,22.10
2018-11-20T10:10:19.879Z,22.10
2018-11-20T10:11:10.427Z,22.10
2018-11-20T10:12:00.532Z,22.10
2018-11-20T10:12:51.054Z,22.10
2018-11-20T10:13:41.657Z,22.10
2018-11-20T10:14:31.779Z,22.10
2018-11-20T10:15:21.843Z,22.10
2018-11-20T10:16:12.497Z,22.10
2018-11-20T10:17:03.000Z,22.10
2018-11-20T10:17:53.503Z,22.10
2018-11-20T10:18:43.553Z,22.10
2018-11-20T10:19:34.192Z,22.10
2018-11-20T10:20:24.711Z,22.10
2018-11-20T10:21:15.207Z,22.10
2018-11-20T10:22:05.228Z,22.10
2018-11-20T10:22:55.650Z,22.10
2018-11-20T10:23:45.865Z,22.10
2018-11-20T10:24:36.180Z,22.10
2018-11-20T10:25:26.240Z,22.10
2018-11-20T10:26:16.272Z,22.10
2018-11-20T10:27:06.196Z,22.10
2018-11-20T10:27:56.829Z,22.10
2018-11-20T10:28:46.879Z,22.10
2018-11-20T10:29:37.087Z,22.20
2018-11-20T10:30:27.302Z,22.10
2018-11-20T10:31:17.512Z,22.10
2018-11-20T10:32:08.081Z,22.10
2018-11-20T10:32:58.569Z,22.10
2018-11-20T10:33:49.087Z,22.10
2018-11-20T10:34:39.443Z,22.20
2018-11-20T10:35:29.549Z,22.10
2018-11-20T10:36:20.146Z,22.10
2018-11-20T10:37:10.574Z,22.10
2018-11-20T10:38:01.177Z,22.10
2018-11-20T10:38:51.439Z,22.10
2018-11-20T10:39:41.568Z,22.10
2018-11-20T10:40:32.174Z,22.10
2018-11-20T10:41:22.664Z,22.10
2018-11-20T10:42:13.103Z,22.10
2018-11-20T10:43:03.869Z,22.10
2018-11-20T10:43:53.994Z,22.10
2018-11-20T10:44:44.027Z,22.10
2018-11-20T10:45:34.477Z,22.10
2018-11-20T10:46:25.087Z,22.10
2018-11-20T10:47:15.142Z,22.10
2018-11-20T10:48:05.180Z,22.10
2018-11-20T10:48:55.279Z,22.10
2018-11-20T10:49:45.305Z,22.10